Time;durP1;ratioP1;P1;durP2;ratioP2;P2;SDS_P1;SDS_P2;PMS_P1;PMS_P2;Temp;Humidity;BMP_temperature;BMP_pressure;BME280_temperature;BME280_humidity;BME280_pressure;Samples;Min_cycle;Max_cycle;Signal;HPM_P1;HPM_P2
2021/11/27 00:03:08;;;;;;;112.13;47.73;;;;;;;2.98;100.00;98527.02;5096981;57;1141327;-85
2021/11/27 00:08:17;;;;;;;103.10;43.03;;;;;;;2.91;100.00;98534.95;4945321;59;1141189;-85
2021/11/27 00:13:27;;;;;;;155.17;56.83;;;;;;;2.77;100.00;98532.11;5045913;58;1141109;-85
2021/11/27 00:18:32;;;;;;;146.87;56.53;;;;;;;2.65;100.00;98527.84;5077728;58;1141114;-85
2021/11/27 00:23:40;;;;;;;150.87;58.23;;;;;;;2.59;100.00;98528.34;5019342;58;1139077;-85
2021/11/27 00:28:47;;;;;;;133.10;56.07;;;;;;;2.56;100.00;98525.48;4991790;59;1141177;-85
2021/11/27 00:33:56;;;;;;;140.13;56.73;;;;;;;2.57;100.00;98525.84;5054128;58;1139308;-84
2021/11/27 00:39:04;;;;;;;143.43;59.07;;;;;;;2.55;100.00;98524.30;5072548;57;1138960;-84
2021/11/27 00:44:11;;;;;;;143.20;60.70;;;;;;;2.60;100.00;98519.06;5077243;58;1139048;-85
2021/11/27 00:49:18;;;;;;;115.27;52.33;;;;;;;2.71;100.00;98518.25;5009378;58;1139038;-85
2021/11/27 00:54:23;;;;;;;151.20;61.45;;;;;;;2.80;100.00;98506.61;5028860;58;1139059;-85
2021/11/27 00:59:29;;;;;;;171.90;72.17;;;;;;;2.92;100.00;98507.42;5003134;58;1139055;-85
2021/11/27 01:04:37;;;;;;;125.93;57.60;;;;;;;2.97;100.00;98510.52;5102862;57;1139219;-85
2021/11/27 01:09:42;;;;;;;115.27;51.73;;;;;;;2.90;100.00;98504.14;5120317;57;1139051;-85
2021/11/27 01:14:48;;;;;;;101.23;45.27;;;;;;;2.92;100.00;98506.59;5119621;57;1139048;-85
2021/11/27 01:19:54;;;;;;;114.87;51.23;;;;;;;2.95;100.00;98504.58;5119515;57;1141185;-86
2021/11/27 01:25:00;;;;;;;119.07;52.53;;;;;;;3.00;100.00;98505.06;5025757;58;1138993;-85
2021/11/27 01:30:09;;;;;;;118.63;52.80;;;;;;;3.07;100.00;98501.00;5102562;56;1139005;-85
2021/11/27 01:35:16;;;;;;;130.17;58.13;;;;;;;3.09;100.00;98497.80;5214007;56;1139406;-85
2021/11/27 01:40:26;;;;;;;140.73;59.40;;;;;;;3.03;100.00;98497.47;5122190;57;1136978;-85
2021/11/27 01:45:32;;;;;;;113.03;51.67;;;;;;;2.91;100.00;98487.48;5219530;56;1141016;-85
2021/11/27 01:50:46;;;;;;;107.87;50.30;;;;;;;2.93;100.00;98494.73;5122444;57;1140999;-85
2021/11/27 01:55:54;;;;;;;98.72;46.58;;;;;;;3.01;100.00;98488.92;5219438;56;1141109;-85
2021/11/27 02:01:17;;;;;;;115.23;51.17;;;;;;;2.85;100.00;98492.37;5121952;57;1139011;-85
2021/11/27 02:06:24;;;;;;;;;;;;;;;2.72;100.00;98493.81;5223063;56;1141126;-85
2021/11/27 02:11:34;;;;;;;91.00;44.53;;;;;;;2.65;100.00;98487.39;5222216;56;971990;-85
2021/11/27 02:16:45;;;;;;;104.13;42.43;;;;;;;2.68;100.00;98477.56;5122362;57;1136882;-86
2021/11/27 02:21:50;;;;;;;99.60;46.87;;;;;;;2.81;100.00;98478.73;5185535;56;1141050;-85
2021/11/27 02:26:57;;;;;;;112.93;50.77;;;;;;;2.94;100.00;98474.67;5133115;57;1139059;-85
2021/11/27 02:32:04;;;;;;;101.43;50.57;;;;;;;2.98;100.00;98478.71;5132985;57;1141160;-85
2021/11/27 02:37:10;;;;;;;84.43;43.00;;;;;;;2.90;100.00;98466.28;5132166;57;1141366;-86
2021/11/27 02:42:18;;;;;;;77.70;37.57;;;;;;;2.90;100.00;98474.58;5130104;56;1139014;-86
2021/11/27 02:47:23;;;;;;;86.47;42.90;;;;;;;2.93;100.00;98469.09;5132183;57;1141029;-85
2021/11/27 02:52:31;;;;;;;86.17;41.75;;;;;;;2.94;100.00;98476.81;5089848;57;1139124;-85
2021/11/27 02:57:38;;;;;;;91.50;43.17;;;;;;;2.94;100.00;98471.59;5069399;57;1138992;-85
2021/11/27 03:02:45;;;;;;;96.50;44.60;;;;;;;2.91;100.00;98476.22;5057528;57;1139258;-86
2021/11/27 03:07:52;;;;;;;87.83;42.57;;;;;;;2.79;100.00;98474.93;5086131;57;1139001;-85
2021/11/27 03:12:58;;;;;;;80.13;38.17;;;;;;;2.70;100.00;98473.53;5154158;57;1139265;-85
2021/11/27 03:18:04;;;;;;;75.53;37.50;;;;;;;2.66;100.00;98465.09;5153922;57;1139042;-85
2021/11/27 03:23:09;;;;;;;82.37;40.17;;;;;;;2.63;100.00;98463.20;5210797;56;1141195;-85
2021/11/27 03:28:16;;;;;;;93.07;46.00;;;;;;;2.67;100.00;98460.71;5241201;56;1139038;-86
2021/11/27 03:33:22;;;;;;;78.97;39.83;;;;;;;2.65;100.00;98454.78;5240850;56;1138869;-86
2021/11/27 03:38:28;;;;;;;89.67;39.10;;;;;;;2.65;100.00;98458.69;5241017;56;1139090;-86
2021/11/27 03:43:35;;;;;;;77.97;38.33;;;;;;;2.71;100.00;98463.45;5241361;56;1139072;-85
2021/11/27 03:48:44;;;;;;;86.77;41.77;;;;;;;2.76;100.00;98458.20;5241762;56;1139081;-86
2021/11/27 03:53:51;;;;;;;82.30;41.03;;;;;;;2.78;100.00;98455.47;5241591;56;1139009;-85
2021/11/27 03:59:01;;;;;;;67.97;34.55;;;;;;;2.74;100.00;98449.69;5241709;56;1139372;-85
2021/11/27 04:04:09;;;;;;;65.20;33.00;;;;;;;2.76;100.00;98455.59;5241508;56;1139002;-85
2021/11/27 04:09:16;;;;;;;76.77;38.67;;;;;;;2.82;100.00;98458.20;5241334;56;1141049;-85
2021/11/27 04:14:22;;;;;;;82.80;40.40;;;;;;;2.78;100.00;98461.52;5068838;58;1136990;-84
2021/11/27 04:19:32;;;;;;;82.90;41.67;;;;;;;2.66;100.00;98459.88;5239956;56;1137013;-85
2021/11/27 04:29:51;;;;;;;73.87;35.47;;;;;;;2.68;100.00;98462.37;5270355;55;46344;-85
2021/11/27 04:34:57;;;;;;;73.67;35.13;;;;;;;2.59;100.00;98461.80;5125705;57;1132752;-85
2021/11/27 04:40:04;;;;;;;71.07;33.70;;;;;;;2.55;100.00;98462.98;5056810;57;1139028;-84
2021/11/27 04:45:11;;;;;;;54.77;30.80;;;;;;;2.47;100.00;98463.55;5116764;57;1139052;-86
2021/11/27 04:50:18;;;;;;;61.57;30.73;;;;;;;2.42;100.00;98479.58;5056012;57;1136998;-84
2021/11/27 04:55:25;;;;;;;67.33;34.50;;;;;;;2.31;100.00;98481.33;5093349;57;1136987;-84
2021/11/27 05:00:43;;;;;;;71.30;34.17;;;;;;;2.30;100.00;98482.27;5099272;57;1136949;-84
2021/11/27 05:05:50;;;;;;;74.67;34.70;;;;;;;2.30;100.00;98480.50;5102491;57;1137193;-84
2021/11/27 05:10:56;;;;;;;72.00;35.77;;;;;;;2.39;100.00;98488.11;5072294;57;1139198;-86
2021/11/27 05:16:03;;;;;;;116.60;55.13;;;;;;;2.45;100.00;98495.45;5055329;57;1137006;-86
2021/11/27 05:21:09;;;;;;;77.53;35.53;;;;;;;2.47;100.00;98491.78;5045807;57;1136823;-85
2021/11/27 05:26:17;;;;;;;71.47;33.95;;;;;;;2.48;100.00;98480.87;5091701;57;1138896;-85
2021/11/27 05:31:41;;;;;;;68.87;33.47;;;;;;;2.42;100.00;98492.63;4981465;59;1139276;-85
2021/11/27 05:36:48;;;;;;;74.50;34.63;;;;;;;2.44;100.00;98494.62;5055732;58;1139180;-84
2021/11/27 05:41:55;;;;;;;77.90;39.17;;;;;;;2.52;100.00;98508.39;5010404;57;1138867;-85
2021/11/27 05:47:00;;;;;;;78.73;39.83;;;;;;;2.45;100.00;98496.75;5009994;58;1138957;-85
2021/11/27 05:52:08;;;;;;;69.27;33.90;;;;;;;2.46;100.00;98498.41;5009760;59;1139084;-85
2021/11/27 05:57:15;;;;;;;59.20;29.17;;;;;;;2.46;100.00;98499.25;5010042;59;1139108;-84
2021/11/27 06:02:21;;;;;;;60.93;31.13;;;;;;;2.48;100.00;98501.73;5009698;59;1139272;-86
2021/11/27 06:07:30;;;;;;;65.47;31.77;;;;;;;2.53;100.00;98515.75;5009981;59;1141319;-85
2021/11/27 06:12:36;;;;;;;74.13;35.90;;;;;;;2.54;100.00;98522.63;5009777;59;1138931;-85
2021/11/27 06:17:41;;;;;;;72.63;34.50;;;;;;;2.62;100.00;98522.86;5010102;59;1139021;-85
2021/11/27 06:22:48;;;;;;;67.13;30.57;;;;;;;2.63;100.00;98521.44;5057212;58;1139003;-85
2021/11/27 06:27:54;;;;;;;64.67;30.80;;;;;;;2.60;100.00;98512.53;5091097;58;1139054;-85
2021/11/27 06:33:00;;;;;;;71.60;32.97;;;;;;;2.56;100.00;98509.00;5091160;58;1139096;-84
2021/11/27 06:38:06;;;;;;;71.60;33.97;;;;;;;2.58;100.00;98530.59;5091167;58;1139199;-84
2021/11/27 06:43:12;;;;;;;67.07;34.30;;;;;;;2.57;100.00;98534.14;5091482;58;1139034;-84
2021/11/27 06:48:32;;;;;;;63.73;32.37;;;;;;;2.55;100.00;98547.78;4818536;61;1139321;-85
2021/11/27 06:53:37;;;;;;;61.03;32.57;;;;;;;2.57;100.00;98555.85;4835918;61;1139242;-85
2021/11/27 06:58:43;;;;;;;88.47;38.80;;;;;;;2.65;100.00;98567.83;4836469;61;1139173;-85
2021/11/27 07:03:59;;;;;;;90.73;41.63;;;;;;;2.56;100.00;98570.31;4834470;61;1139136;-85
2021/11/27 07:09:10;;;;;;;90.12;40.67;;;;;;;2.51;100.00;98568.52;4831576;61;1139164;-85
2021/11/27 07:14:18;;;;;;;67.10;33.03;;;;;;;2.48;100.00;98576.09;4834634;61;1139514;-83
2021/11/27 07:19:24;;;;;;;78.47;40.43;;;;;;;2.54;100.00;98578.26;4836560;61;1139075;-85
2021/11/27 07:24:29;;;;;;;90.00;42.83;;;;;;;2.55;100.00;98583.00;4948013;58;1138868;-83
2021/11/27 07:29:39;;;;;;;72.60;37.50;;;;;;;2.53;100.00;98575.77;5010064;58;1139143;-84
2021/11/27 07:34:45;;;;;;;67.40;31.53;;;;;;;2.53;100.00;98589.64;5010416;58;1139165;-84
2021/11/27 07:39:50;;;;;;;88.20;39.70;;;;;;;2.55;100.00;98601.27;5009987;58;1139031;-83
2021/11/27 07:44:56;;;;;;;86.60;42.97;;;;;;;2.61;100.00;98599.48;5009713;58;1139025;-84
2021/11/27 07:50:10;;;;;;;72.95;35.58;;;;;;;2.66;100.00;98601.28;5008118;58;1139071;-84
2021/11/27 07:55:36;;;;;;;84.20;39.53;;;;;;;2.72;100.00;98604.74;4880880;60;1137007;-84
2021/11/27 08:00:43;;;;;;;56.63;28.67;;;;;;;2.67;100.00;98610.77;4888590;59;1136920;-84
2021/11/27 08:05:48;;;;;;;51.10;26.10;;;;;;;2.66;100.00;98605.20;4920815;59;1137139;-85
2021/11/27 08:10:54;;;;;;;57.43;29.20;;;;;;;2.67;100.00;98610.30;4908652;59;1137484;-84
2021/11/27 08:16:00;;;;;;;61.37;28.70;;;;;;;2.67;100.00;98606.39;4904384;59;1137117;-83
2021/11/27 08:21:06;;;;;;;55.50;26.83;;;;;;;2.68;100.00;98617.66;4901628;59;1137053;-83
2021/11/27 08:26:12;;;;;;;59.43;28.60;;;;;;;2.65;100.00;98611.36;4958643;59;1137205;-83
2021/11/27 08:31:18;;;;;;;57.83;28.40;;;;;;;2.68;100.00;98616.36;5079190;57;1137007;-83
2021/11/27 08:36:24;;;;;;;78.43;39.53;;;;;;;2.75;100.00;98623.59;5088658;58;1139030;-83
2021/11/27 08:41:30;;;;;;;54.37;28.20;;;;;;;2.86;100.00;98621.49;5090382;58;1136991;-83
2021/11/27 08:46:36;;;;;;;46.83;23.83;;;;;;;2.89;100.00;98633.02;5090185;58;1136948;-83
2021/11/27 08:51:43;;;;;;;58.40;27.80;;;;;;;2.87;100.00;98634.91;5090454;58;1136844;-84
2021/11/27 08:56:50;;;;;;;43.50;22.67;;;;;;;2.84;100.00;98636.44;5127031;57;1135127;-83
2021/11/27 09:01:58;;;;;;;107.07;42.90;;;;;;;2.90;100.00;98641.20;4975933;58;1134951;-80
2021/11/27 09:07:06;;;;;;;62.17;33.90;;;;;;;2.91;100.00;98649.36;4898348;59;1141425;-76
2021/11/27 09:12:12;;;;;;;64.63;29.00;;;;;;;2.89;100.00;98658.28;4902817;59;1138851;-78
2021/11/27 09:17:18;;;;;;;44.38;24.10;;;;;;;2.82;100.00;98660.05;4958061;58;1139022;-80
2021/11/27 09:22:24;;;;;;;46.73;24.33;;;;;;;2.83;100.00;98660.41;4979892;59;1139391;-78
2021/11/27 09:27:29;;;;;;;37.65;23.25;;;;;;;2.88;100.00;98671.81;4917648;59;1138980;-78
2021/11/27 09:32:35;;;;;;;47.27;25.10;;;;;;;2.96;100.00;98669.91;4854050;60;1139060;-80
2021/11/27 09:37:41;;;;;;;49.77;24.10;;;;;;;3.04;100.00;98664.95;4989435;58;1139116;-79
2021/11/27 09:42:50;;;;;;;45.50;25.15;;;;;;;3.12;100.00;98666.02;4895142;60;1138991;-79
2021/11/27 09:47:57;;;;;;;52.17;26.13;;;;;;;3.22;100.00;98662.69;4901090;59;1138991;-76
2021/11/27 09:53:03;;;;;;;54.40;29.77;;;;;;;3.28;100.00;98668.28;4941750;59;1141300;-79
2021/11/27 09:58:09;;;;;;;54.70;26.33;;;;;;;3.32;100.00;98661.05;4961658;58;1139012;-76
2021/11/27 10:03:16;;;;;;;44.50;22.90;;;;;;;3.30;100.00;98659.86;5069323;58;1139434;-78
2021/11/27 10:08:22;;;;;;;48.70;25.12;;;;;;;3.32;100.00;98663.19;5077099;58;1139033;-82
2021/11/27 10:13:28;;;;;;;53.77;26.87;;;;;;;3.36;100.00;98667.70;5083411;58;1141604;-84
2021/11/27 10:18:33;;;;;;;28.07;15.47;;;;;;;3.36;100.00;98664.59;5063593;58;1139133;-80
2021/11/27 10:23:39;;;;;;;43.00;23.77;;;;;;;3.35;100.00;98676.49;5060066;58;1138990;-82
2021/11/27 10:28:45;;;;;;;63.13;33.20;;;;;;;3.30;100.00;98682.06;5055177;58;1138941;-76
2021/11/27 10:34:01;;;;;;;82.07;38.40;;;;;;;3.33;100.00;98688.84;5075003;58;1138737;-76
2021/11/27 10:39:09;;;;;;;57.37;26.33;;;;;;;3.30;100.00;98690.37;5055410;58;1139022;-83
2021/11/27 10:44:14;;;;;;;128.80;65.97;;;;;;;3.27;100.00;98695.83;5057791;58;1139259;-78
2021/11/27 10:49:27;;;;;;;106.23;45.10;;;;;;;3.22;100.00;98694.03;5081187;58;1141096;-79
2021/11/27 10:54:52;;;;;;;134.37;65.83;;;;;;;3.01;100.00;98687.38;5042291;58;1141252;-81
2021/11/27 10:59:59;;;;;;;64.07;31.87;;;;;;;2.86;100.00;98686.76;5072356;58;1141467;-83
2021/11/27 11:05:15;;;;;;;98.50;49.13;;;;;;;2.76;100.00;98692.29;5057453;58;1139261;-82
2021/11/27 11:10:34;;;;;;;76.67;36.57;;;;;;;2.66;100.00;98699.98;5062471;58;1139273;-82
2021/11/27 11:15:44;;;;;;;58.70;29.60;;;;;;;2.69;100.00;98701.06;5064494;58;1139022;-82
2021/11/27 11:21:06;;;;;;;59.37;30.83;;;;;;;2.76;100.00;98704.03;5068268;57;1136858;-80
2021/11/27 11:26:24;;;;;;;78.37;33.83;;;;;;;2.81;100.00;98706.67;5066783;58;1137179;-79
2021/11/27 11:31:32;;;;;;;76.03;37.93;;;;;;;2.81;100.00;98701.92;5018968;58;1136976;-81
2021/11/27 11:36:38;;;;;;;72.80;32.33;;;;;;;2.79;100.00;98685.54;5018681;59;1136971;-81
2021/11/27 11:41:44;;;;;;;45.87;22.03;;;;;;;2.69;100.00;98697.16;5018670;59;1137254;-80
2021/11/27 11:46:50;;;;;;;61.47;28.07;;;;;;;2.61;100.00;98699.95;5018757;59;1136950;-83
2021/11/27 11:52:17;;;;;;;74.77;30.57;;;;;;;2.67;100.00;98696.91;5018759;59;1136884;-83
2021/11/27 11:57:23;;;;;;;233.60;100.97;;;;;;;2.78;100.00;98698.23;5018345;59;1137081;-82
2021/11/27 12:02:29;;;;;;;212.08;79.27;;;;;;;2.88;100.00;98701.01;5029875;58;1139157;-82
2021/11/27 12:07:57;;;;;;;81.57;35.37;;;;;;;2.93;100.00;98687.11;5018379;58;1137020;-82
2021/11/27 12:13:13;;;;;;;114.40;48.23;;;;;;;2.95;100.00;98691.27;5030101;58;1139028;-83
2021/11/27 12:18:21;;;;;;;305.33;147.17;;;;;;;3.00;100.00;98675.27;5069165;58;1141061;-84
2021/11/27 12:23:35;;;;;;;73.87;35.03;;;;;;;3.11;100.00;98669.58;5071427;58;1143153;-82
2021/11/27 12:28:56;;;;;;;55.40;27.63;;;;;;;3.16;100.00;98663.53;5100408;58;1139158;-82
2021/11/27 12:34:07;;;;;;;56.63;26.97;;;;;;;3.24;100.00;98656.40;5100480;58;1139272;-82
2021/11/27 12:39:30;;;;;;;69.73;40.47;;;;;;;3.59;100.00;98650.21;5100557;58;1139002;-81
2021/11/27 12:44:56;;;;;;;85.53;42.40;;;;;;;3.96;100.00;98650.27;5101416;58;1139070;-83
2021/11/27 12:50:07;;;;;;;75.57;36.10;;;;;;;3.93;100.00;98657.52;5101212;58;1139080;-79
2021/11/27 12:55:17;;;;;;;49.83;23.93;;;;;;;3.77;99.97;98658.75;5102465;58;1139083;-83
2021/11/27 13:00:27;;;;;;;63.00;30.00;;;;;;;4.13;100.00;98673.73;5076831;58;1136949;-85
2021/11/27 13:05:36;;;;;;;73.30;35.03;;;;;;;4.89;100.00;98676.61;5061271;58;1139040;-84
2021/11/27 13:10:48;;;;;;;54.53;29.60;;;;;;;5.50;99.10;98677.98;5068892;58;1141452;-85
2021/11/27 13:15:56;;;;;;;56.65;29.92;;;;;;;5.97;98.46;98681.25;5025924;58;1139525;-80
2021/11/27 13:21:08;;;;;;;71.90;33.57;;;;;;;5.83;92.37;98689.95;5048951;58;1137481;-81
2021/11/27 13:26:21;;;;;;;61.40;29.18;;;;;;;5.21;93.45;98687.83;4933668;60;1135048;-81
2021/11/27 13:31:34;;;;;;;89.42;37.20;;;;;;;4.62;92.17;98680.22;4957780;59;1134942;-83
2021/11/27 13:36:49;;;;;;;89.33;36.67;;;;;;;4.08;93.83;98690.30;5009969;58;1135317;-80
2021/11/27 13:42:16;;;;;;;68.50;30.13;;;;;;;3.70;94.11;98706.39;5044894;58;1134948;-82
2021/11/27 13:47:28;;;;;;;83.40;36.00;;;;;;;3.47;95.10;98698.58;5117960;56;1134904;-78
2021/11/27 13:52:46;;;;;;;91.35;38.30;;;;;;;3.30;96.01;98702.97;5066541;57;1134865;-79
2021/11/27 13:57:59;;;;;;;87.43;37.03;;;;;;;3.14;96.44;98708.53;5115234;57;1132786;-80
2021/11/27 14:03:10;;;;;;;59.07;26.23;;;;;;;3.03;96.88;98711.60;5154345;56;1137002;-82
2021/11/27 14:08:21;;;;;;;63.33;28.83;;;;;;;2.89;96.68;98727.00;5125410;57;1136993;-81
2021/11/27 14:13:28;;;;;;;68.27;31.53;;;;;;;2.79;97.07;98721.62;5094231;57;1136780;-79
2021/11/27 14:18:35;;;;;;;75.17;30.93;;;;;;;2.73;97.42;98714.26;5122425;57;1137006;-80
2021/11/27 14:23:50;;;;;;;68.07;28.47;;;;;;;2.70;97.86;98711.88;5051769;58;1137058;-81
2021/11/27 14:29:04;;;;;;;65.50;32.37;;;;;;;2.74;98.07;98711.17;5039630;58;1137024;-82
2021/11/27 14:34:18;;;;;;;68.73;31.87;;;;;;;2.73;98.31;98713.42;5066979;57;1136893;-77
2021/11/27 14:39:23;;;;;;;69.17;29.77;;;;;;;2.71;98.49;98704.87;5088943;57;1136948;-78
2021/11/27 14:44:29;;;;;;;75.50;33.40;;;;;;;2.64;98.27;98706.26;5128422;57;1136989;-78
2021/11/27 14:49:45;;;;;;;68.30;29.97;;;;;;;2.59;98.46;98713.14;5107674;57;1137008;-78
2021/11/27 14:54:55;;;;;;;98.77;40.90;;;;;;;2.53;98.37;98712.28;5095517;57;1136812;-77
2021/11/27 15:00:21;;;;;;;93.37;36.17;;;;;;;2.45;98.76;98707.61;5140815;57;1136934;-77
2021/11/27 15:05:26;;;;;;;80.27;37.13;;;;;;;2.48;99.03;98709.16;5052792;58;1136952;-78
2021/11/27 15:10:32;;;;;;;84.13;36.13;;;;;;;2.42;98.78;98709.16;5079599;57;1136894;-81
2021/11/27 15:15:37;;;;;;;92.50;43.57;;;;;;;2.38;98.94;98719.92;5087154;57;1136310;-81
2021/11/27 15:20:44;;;;;;;101.95;42.73;;;;;;;2.38;99.29;98720.76;5141566;57;1136910;-80
2021/11/27 15:25:49;;;;;;;74.37;32.13;;;;;;;2.37;99.46;98732.60;5099297;56;1139047;-80
2021/11/27 15:30:57;;;;;;;71.57;33.07;;;;;;;2.40;99.47;98738.91;5095018;57;1136923;-81
2021/11/27 15:36:04;;;;;;;79.37;36.50;;;;;;;2.37;99.17;98733.91;5138572;56;1136863;-85
2021/11/27 15:41:10;;;;;;;77.42;36.45;;;;;;;2.32;99.28;98738.61;5112869;56;1136919;-83
2021/11/27 15:46:16;;;;;;;87.57;37.23;;;;;;;2.22;99.42;98738.45;5070158;57;1136959;-79
2021/11/27 15:51:23;;;;;;;82.13;38.03;;;;;;;2.18;99.41;98743.99;5112699;57;1136867;-80
2021/11/27 15:56:29;;;;;;;89.37;38.83;;;;;;;2.11;99.85;98736.63;5070849;57;1137049;-80
2021/11/27 16:01:35;;;;;;;95.17;41.13;;;;;;;2.13;99.79;98740.91;4988864;58;1137033;-79
2021/11/27 16:06:44;;;;;;;84.00;39.97;;;;;;;2.13;100.00;98739.12;5150442;57;1137044;-80
2021/11/27 16:11:49;;;;;;;90.30;38.25;;;;;;;2.10;100.00;98749.30;5000515;58;1137002;-81
2021/11/27 16:16:56;;;;;;;447.30;154.60;;;;;;;2.02;99.85;98756.81;5090026;57;1136872;-78
2021/11/27 16:22:01;;;;;;;167.00;50.30;;;;;;;1.97;100.00;98751.11;5102939;57;1139001;-81
2021/11/27 16:27:07;;;;;;;92.87;38.97;;;;;;;1.87;100.00;98751.84;5086640;57;1139008;-82
2021/11/27 16:32:13;;;;;;;95.17;39.43;;;;;;;1.75;100.00;98758.29;5095460;57;1136991;-86
2021/11/27 16:37:21;;;;;;;96.27;40.13;;;;;;;1.66;100.00;98762.85;5097161;57;1136938;-86
2021/11/27 16:42:27;;;;;;;191.13;84.80;;;;;;;1.62;100.00;98756.17;5102778;57;1136935;-89
2021/11/27 16:47:33;;;;;;;105.25;42.93;;;;;;;1.64;100.00;98761.28;5090807;57;1138907;-89
2021/11/27 16:52:40;;;;;;;140.47;57.97;;;;;;;1.66;100.00;98762.85;5104521;57;1139087;-84
2021/11/27 16:57:49;;;;;;;116.07;46.80;;;;;;;1.70;100.00;98769.96;5117761;57;1139175;-79
2021/11/27 17:03:04;;;;;;;108.17;43.00;;;;;;;1.71;100.00;98772.94;5087518;57;1138995;-79
2021/11/27 17:08:05;;;;;;;96.33;43.53;;;;;;;1.64;100.00;98778.22;5087920;57;1139090;-81
2021/11/27 17:13:11;;;;;;;99.83;42.27;;;;;;;1.61;100.00;98778.42;5125153;57;1136959;-79
2021/11/27 17:18:17;;;;;;;104.73;44.30;;;;;;;1.63;100.00;98777.86;5114216;57;1137007;-80
2021/11/27 17:23:24;;;;;;;104.03;46.10;;;;;;;1.61;100.00;98777.95;5123293;57;1139056;-79
2021/11/27 17:28:30;;;;;;;109.43;42.80;;;;;;;1.59;100.00;98781.13;5126980;57;1139203;-79
2021/11/27 17:33:36;;;;;;;93.03;39.63;;;;;;;1.63;100.00;98780.46;5075362;57;1136956;-80
2021/11/27 17:38:41;;;;;;;109.67;45.53;;;;;;;1.66;100.00;98775.88;5120135;57;1134807;-82
2021/11/27 17:43:47;;;;;;;92.50;39.20;;;;;;;1.68;100.00;98777.88;5123574;57;1141444;-82
2021/11/27 17:48:53;;;;;;;106.20;41.00;;;;;;;1.70;100.00;98773.41;5003256;57;1138958;-80
2021/11/27 17:53:58;;;;;;;98.47;39.63;;;;;;;1.68;100.00;98772.67;5157293;57;1141052;-80
2021/11/27 17:59:07;;;;;;;113.07;42.20;;;;;;;1.65;100.00;98779.89;5180286;56;1138953;-78
2021/11/27 18:04:14;;;;;;;105.07;39.73;;;;;;;1.62;100.00;98790.52;5177563;56;1141104;-80
2021/11/27 18:09:20;;;;;;;117.70;44.30;;;;;;;1.54;100.00;98788.89;5151515;56;1141604;-81
2021/11/27 18:14:26;;;;;;;105.57;42.93;;;;;;;1.53;100.00;98795.88;5159889;56;1140916;-79
2021/11/27 18:19:32;;;;;;;108.87;43.47;;;;;;;1.61;100.00;98797.50;5146970;56;1141230;-80
2021/11/27 18:24:44;;;;;;;128.03;47.60;;;;;;;1.65;100.00;98800.27;5141753;57;1141128;-80
2021/11/27 18:29:47;;;;;;;101.83;40.13;;;;;;;1.62;100.00;98795.73;5141199;57;1141117;-79
2021/11/27 18:34:54;;;;;;;102.23;38.77;;;;;;;1.61;100.00;98804.02;5141668;57;1141266;-78
2021/11/27 18:40:01;;;;;;;96.87;39.07;;;;;;;1.64;100.00;98803.81;5142296;57;1141404;-81
2021/11/27 18:45:09;;;;;;;153.00;52.40;;;;;;;1.65;100.00;98807.25;5191728;56;1138819;-83
2021/11/27 18:50:15;;;;;;;119.17;41.10;;;;;;;1.61;100.00;98817.04;5228868;56;1141228;-79
2021/11/27 18:55:22;;;;;;;110.20;41.10;;;;;;;1.57;100.00;98814.27;5203911;56;1141113;-79
2021/11/27 19:00:28;;;;;;;101.93;36.60;;;;;;;1.54;100.00;98815.77;5143652;56;1141152;-81
2021/11/27 19:05:34;;;;;;;111.70;42.07;;;;;;;1.56;100.00;98812.60;5115965;57;1141612;-80
2021/11/27 19:10:40;;;;;;;155.63;60.20;;;;;;;1.49;100.00;98814.44;5072327;57;1141068;-80
2021/11/27 19:15:46;;;;;;;99.07;38.47;;;;;;;1.46;100.00;98819.84;5069044;56;1141243;-77
2021/11/27 19:20:52;;;;;;;119.43;57.83;;;;;;;1.48;100.00;98816.20;5141466;57;1139306;-78
2021/11/27 19:26:02;;;;;;;106.90;42.83;;;;;;;1.51;100.00;98823.83;5141324;57;1141068;-76
2021/11/27 19:31:08;;;;;;;77.20;30.60;;;;;;;1.53;100.00;98828.44;5139521;57;1141170;-79
2021/11/27 19:36:22;;;;;;;97.00;38.33;;;;;;;1.55;100.00;98832.24;4993027;58;1139032;-79
2021/11/27 19:41:24;;;;;;;75.03;28.60;;;;;;;1.49;100.00;98835.28;5177446;56;1139010;-80
2021/11/27 19:46:31;;;;;;;114.17;46.03;;;;;;;1.40;100.00;98842.76;5054161;58;1139221;-80
2021/11/27 19:51:37;;;;;;;103.83;42.27;;;;;;;1.33;100.00;98845.42;5103335;57;1141134;-80
2021/11/27 19:56:43;;;;;;;117.60;43.05;;;;;;;1.32;100.00;98840.31;5084851;57;1141423;-80
2021/11/27 20:01:49;;;;;;;119.03;42.10;;;;;;;1.33;100.00;98838.91;5113187;57;1141042;-79
2021/11/27 20:06:54;;;;;;;118.63;44.63;;;;;;;1.30;100.00;98835.20;5082912;57;1141097;-79
2021/11/27 20:12:00;;;;;;;100.50;42.40;;;;;;;1.33;100.00;98828.96;5085482;57;1140921;-78
2021/11/27 20:17:07;;;;;;;126.03;46.00;;;;;;;1.39;100.00;98829.84;5117488;57;1141302;-78
2021/11/27 20:22:12;;;;;;;128.27;54.70;;;;;;;1.44;100.00;98836.88;5141698;57;1140896;-77
2021/11/27 20:27:18;;;;;;;119.37;49.80;;;;;;;1.47;100.00;98839.75;5141434;57;1141389;-76
2021/11/27 20:32:24;;;;;;;187.60;78.53;;;;;;;1.48;100.00;98829.23;5141396;57;1141005;-78
2021/11/27 20:37:29;;;;;;;179.00;79.93;;;;;;;1.51;100.00;98812.56;5124156;57;1141011;-79
2021/11/27 20:42:35;;;;;;;147.53;60.57;;;;;;;1.47;100.00;98787.19;5058003;57;1141054;-79
2021/11/27 20:47:41;;;;;;;133.90;53.53;;;;;;;1.48;100.00;98782.34;5057919;57;1141107;-80
2021/11/27 20:52:47;;;;;;;121.97;50.93;;;;;;;1.51;100.00;98780.84;5057986;58;1139340;-77
2021/11/27 20:57:53;;;;;;;130.20;53.67;;;;;;;1.52;100.00;98756.92;5058010;58;1138906;-79
2021/11/27 21:02:58;;;;;;;127.70;50.17;;;;;;;1.49;100.00;98759.27;5078094;57;1139226;-81
2021/11/27 21:08:08;;;;;;;149.07;62.93;;;;;;;1.49;100.00;98767.55;5100275;57;1139241;-82
2021/11/27 21:13:18;;;;;;;117.37;50.53;;;;;;;1.53;100.00;98791.16;5089536;57;1138886;-85
2021/11/27 21:18:21;;;;;;;175.53;72.90;;;;;;;1.54;100.00;98795.41;5107859;57;1139015;-82
2021/11/27 21:23:29;;;;;;;165.07;76.13;;;;;;;1.59;100.00;98801.14;5092146;57;1139003;-84
2021/11/27 21:28:35;;;;;;;112.13;47.33;;;;;;;1.64;100.00;98804.28;5086639;57;1138969;-84
2021/11/27 21:33:40;;;;;;;111.30;46.93;;;;;;;1.70;100.00;98802.06;5127891;57;1139371;-82
2021/11/27 21:38:46;;;;;;;116.73;50.20;;;;;;;1.66;100.00;98804.55;5142118;57;1139043;-85
2021/11/27 21:43:52;;;;;;;111.97;48.23;;;;;;;1.62;100.00;98803.55;5142261;57;1138925;-84
2021/11/27 21:48:58;;;;;;;99.83;46.02;;;;;;;1.60;100.00;98797.59;5142235;57;1138989;-86
2021/11/27 21:54:05;;;;;;;130.93;61.03;;;;;;;1.59;100.00;98816.30;5142115;57;1136883;-82
2021/11/27 21:59:11;;;;;;;119.23;52.57;;;;;;;1.60;100.00;98819.28;5142172;57;1139331;-84
2021/11/27 22:04:18;;;;;;;115.60;49.37;;;;;;;1.61;100.00;98827.94;5142124;57;1139369;-82
2021/11/27 22:09:24;;;;;;;104.20;46.60;;;;;;;1.64;100.00;98819.91;5062819;57;1138924;-83
2021/11/27 22:14:30;;;;;;;102.57;44.30;;;;;;;1.71;100.00;98813.33;5070310;58;1136847;-82
2021/11/27 22:19:37;;;;;;;113.80;50.10;;;;;;;1.70;100.00;98790.34;5046197;58;1136976;-84
2021/11/27 22:24:43;;;;;;;119.37;49.03;;;;;;;1.68;100.00;98791.41;4984633;59;21173;-82
2021/11/27 22:29:48;;;;;;;99.63;43.00;;;;;;;1.65;100.00;98789.02;5058748;58;1137172;-82
2021/11/27 22:34:54;;;;;;;97.63;44.20;;;;;;;1.67;100.00;98784.06;4963528;59;1139334;-82
2021/11/27 22:40:00;;;;;;;100.80;45.30;;;;;;;1.69;100.00;98788.67;4974049;59;1139242;-83
2021/11/27 22:45:07;;;;;;;103.80;45.40;;;;;;;1.69;100.00;98784.77;4974328;59;1141280;-85
2021/11/27 22:50:13;;;;;;;100.83;46.97;;;;;;;1.70;100.00;98799.93;4981921;59;1141122;-81
2021/11/27 22:55:19;;;;;;;96.57;47.35;;;;;;;1.74;100.00;98801.39;5028213;59;1141091;-82
2021/11/27 23:00:35;;;;;;;93.13;42.83;;;;;;;1.76;100.00;98797.75;4888919;59;1139031;-83
2021/11/27 23:05:40;;;;;;;103.92;45.70;;;;;;;1.79;100.00;98778.94;5028711;59;1139345;-83